Cornelio Procopio, Brazil
Current Conditions -  °F | °C
As of 6:00 AM on Sunday 26 Oct 2014 (Local Time) from SBLO Reporting Station
Broken Clouds Broken Clouds  
Wind Chill: 66°   Ceiling: 1000
Heat Index: 66°   Visibility: 6mi
Dew Point: 66°   Wind: 0mph
Humidity: 100%   Direction: NA
Pressure: 29.94"   Gusts: NA
Location:  23.18°S, 50.65°W
Report Text: SBLO 260800Z 00000KT 9999 BKN010 19/19 Q1014
Loading
Personal Weather Stations






























Interactive Weather Map
Tropical Storm Tracking
New forecast layout! Learn more

10-Day Weather Forecast

Advertisements
Track Severe Weather on mobile